Time;durP1;ratioP1;P1;durP2;ratioP2;P2;SDS_P1;SDS_P2;PMS_P1;PMS_P2;Temp;Humidity;BMP_temperature;BMP_pressure;BME280_temperature;BME280_humidity;BME280_pressure;Samples;Min_cycle;Max_cycle;Signal;HPM_P1;HPM_P2
2022/04/05 10:25:25;;;;;;;5.18;2.60;;;;;;;;;;7296149;19;20385;-80
2022/04/05 10:27:51;;;;;;;5.32;2.20;;;;;;;;;;7328106;19;20010;-78
2022/04/05 10:30:22;;;;;;;4.22;2.10;;;;;;;;;;7362974;19;20501;-80
2022/04/05 10:33:06;;;;;;;4.22;2.03;;;;;;;;;;7348678;19;20405;-80
2022/04/05 10:35:32;;;;;;;4.80;2.20;;;;;;;;;;7379994;19;20010;-81
2022/04/05 10:38:19;;;;;;;4.20;1.98;;;;;;;;;;7373457;19;20701;-77
2022/04/05 10:41:03;;;;;;;4.70;2.38;;;;;;;;;;7353070;19;20489;-79
2022/04/05 10:43:28;;;;;;;4.40;2.10;;;;;;;;;;7371673;19;20033;-78
2022/04/05 10:45:54;;;;;;;4.75;2.00;;;;;;;;;;7382774;19;20074;-78
2022/04/05 10:48:20;;;;;;;4.10;1.90;;;;;;;;;;7378486;19;20018;-80
2022/04/05 10:50:47;;;;;;;4.35;2.15;;;;;;;;;;7383052;19;20021;-80
2022/04/05 10:53:13;;;;;;;5.50;2.58;;;;;;;;;;7370265;19;20347;-78
2022/04/05 10:55:57;;;;;;;4.65;2.47;;;;;;;;;;7361903;19;20038;-77
2022/04/05 10:58:22;;;;;;;3.97;1.70;;;;;;;;;;7361419;19;20002;-77
2022/04/05 11:00:48;;;;;;;4.53;2.00;;;;;;;;;;7369306;19;20010;-79
2022/04/05 11:03:13;;;;;;;3.58;1.52;;;;;;;;;;7380543;19;20029;-78
2022/04/05 11:05:40;;;;;;;4.18;1.88;;;;;;;;;;7376822;19;20018;-79
2022/04/05 11:08:15;;;;;;;4.03;1.85;;;;;;;;;;7378905;19;20006;-80
2022/04/05 11:10:41;;;;;;;5.55;1.92;;;;;;;;;;7357291;19;20025;-79
2022/04/05 11:13:07;;;;;;;3.88;1.80;;;;;;;;;;7374286;19;20073;-79
2022/04/05 11:15:39;;;;;;;3.85;1.73;;;;;;;;;;7381260;19;20074;-81
2022/04/05 11:18:05;;;;;;;4.47;2.03;;;;;;;;;;7376858;19;20042;-79
2022/04/05 11:20:30;;;;;;;3.67;1.60;;;;;;;;;;7374115;19;20011;-78
2022/04/05 11:22:59;;;;;;;3.42;1.50;;;;;;;;;;7381027;19;20024;-79
2022/04/05 11:25:26;;;;;;;3.70;1.50;;;;;;;;;;7370669;19;20026;-79
2022/04/05 11:27:53;;;;;;;3.42;1.77;;;;;;;;;;7368375;19;20387;-80
2022/04/05 11:30:37;;;;;;;3.53;1.33;;;;;;;;;;7373870;19;20011;-79
2022/04/05 11:33:21;;;;;;;4.13;1.90;;;;;;;;;;7372353;19;20031;-80
2022/04/05 11:35:57;;;;;;;4.07;1.60;;;;;;;;;;7381040;19;20088;-81
2022/04/05 11:38:22;;;;;;;4.05;1.90;;;;;;;;;;7373891;19;20034;-79
2022/04/05 11:40:51;;;;;;;3.20;1.35;;;;;;;;;;7372201;19;20490;-79
2022/04/05 11:43:18;;;;;;;3.30;1.50;;;;;;;;;;7369485;19;20031;-78
2022/04/05 11:45:46;;;;;;;4.70;1.73;;;;;;;;;;7379075;19;20334;-78
2022/04/05 11:48:18;;;;;;;3.83;1.60;;;;;;;;;;7375534;19;20581;-78
2022/04/05 11:50:44;;;;;;;4.00;1.80;;;;;;;;;;7380163;19;20609;-78
2022/04/05 11:53:29;;;;;;;3.80;1.60;;;;;;;;;;7366084;19;20022;-78
2022/04/05 11:56:13;;;;;;;3.40;1.42;;;;;;;;;;7369854;19;20474;-79
2022/04/05 11:58:40;;;;;;;3.25;1.42;;;;;;;;;;7380942;19;20025;-79
2022/04/05 12:01:06;;;;;;;4.00;1.85;;;;;;;;;;7378595;19;20023;-78
2022/04/05 12:03:45;;;;;;;4.57;1.65;;;;;;;;;;7381694;19;20010;-79
2022/04/05 12:06:11;;;;;;;5.32;1.90;;;;;;;;;;7365797;19;20083;-77
2022/04/05 12:08:36;;;;;;;4.68;2.00;;;;;;;;;;7382083;19;20393;-79
2022/04/05 12:11:02;;;;;;;5.47;2.33;;;;;;;;;;7374621;19;20006;-77
2022/04/05 12:13:31;;;;;;;5.27;2.60;;;;;;;;;;7376560;19;20579;-79
2022/04/05 12:15:59;;;;;;;5.30;2.65;;;;;;;;;;7374419;19;20232;-79
2022/04/05 12:18:28;;;;;;;5.22;2.60;;;;;;;;;;7377012;19;20010;-79
2022/04/05 12:21:01;;;;;;;5.47;2.80;;;;;;;;;;7362263;19;20366;-79
2022/04/05 12:23:36;;;;;;;4.95;2.67;;;;;;;;;;7378265;19;20018;-79
2022/04/05 12:26:06;;;;;;;7.25;3.00;;;;;;;;;;7369279;19;20006;-78
2022/04/05 12:28:32;;;;;;;4.97;2.55;;;;;;;;;;7379362;19;20450;-79
2022/04/05 12:31:11;;;;;;;5.32;2.70;;;;;;;;;;7374668;19;20018;-80
2022/04/05 12:33:37;;;;;;;6.35;2.75;;;;;;;;;;7371877;19;20369;-80
2022/04/05 12:36:03;;;;;;;5.55;2.70;;;;;;;;;;7358184;19;20051;-80
2022/04/05 12:38:29;;;;;;;6.47;2.70;;;;;;;;;;7376673;19;20496;-79
2022/04/05 12:40:55;;;;;;;5.47;2.83;;;;;;;;;;7361017;19;19999;-81
2022/04/05 12:43:20;;;;;;;6.20;3.20;;;;;;;;;;7378338;19;20042;-80
2022/04/05 12:45:46;;;;;;;6.55;3.17;;;;;;;;;;7372663;19;20006;-81
2022/04/05 12:48:15;;;;;;;5.70;3.08;;;;;;;;;;7373427;19;19995;-80
2022/04/05 12:50:42;;;;;;;5.45;2.80;;;;;;;;;;7376967;19;20653;-79
2022/04/05 12:53:07;;;;;;;5.32;2.83;;;;;;;;;;7373229;19;19994;-79
2022/04/05 12:55:34;;;;;;;5.83;3.00;;;;;;;;;;7359535;19;20031;-80
2022/04/05 12:57:59;;;;;;;6.18;3.38;;;;;;;;;;7359852;19;20272;-81
2022/04/05 13:00:28;;;;;;;6.40;3.10;;;;;;;;;;7376462;19;20010;-80
2022/04/05 13:03:10;;;;;;;4.88;2.67;;;;;;;;;;7372764;19;20564;-80
2022/04/05 13:08:39;;;;;;;4.85;2.10;;;;;;;;;;7376058;19;20038;-79
2022/04/05 13:11:25;;;;;;;4.50;2.30;;;;;;;;;;7369278;19;20038;-78
2022/04/05 13:13:59;;;;;;;5.13;2.60;;;;;;;;;;7373396;19;20026;-79
2022/04/05 13:16:25;;;;;;;4.57;2.28;;;;;;;;;;7374422;19;20014;-81
2022/04/05 13:18:51;;;;;;;4.97;2.25;;;;;;;;;;7371808;19;20006;-79
2022/04/05 13:21:17;;;;;;;5.22;2.72;;;;;;;;;;7370132;19;20430;-80
2022/04/05 13:23:57;;;;;;;4.80;2.28;;;;;;;;;;7377329;19;20434;-79
2022/04/05 13:26:23;;;;;;;6.20;3.55;;;;;;;;;;7358902;19;20014;-79
2022/04/05 13:28:49;;;;;;;6.65;3.33;;;;;;;;;;7376361;19;20034;-79
2022/04/05 13:31:16;;;;;;;6.22;3.28;;;;;;;;;;7366425;19;20485;-78
2022/04/05 13:33:42;;;;;;;5.47;3.15;;;;;;;;;;7376393;19;20584;-79
2022/04/05 13:36:07;;;;;;;6.03;3.35;;;;;;;;;;7372720;19;20011;-78
2022/04/05 13:38:34;;;;;;;5.57;2.90;;;;;;;;;;7369506;19;20062;-79
2022/04/05 13:40:59;;;;;;;6.10;3.42;;;;;;;;;;7362728;19;20011;-79
2022/04/05 13:43:24;;;;;;;6.43;3.53;;;;;;;;;;7377432;19;20493;-79
2022/04/05 13:45:49;;;;;;;6.10;3.13;;;;;;;;;;7367862;19;20256;-79
2022/04/05 13:48:15;;;;;;;6.00;2.90;;;;;;;;;;7372939;19;20010;-79
2022/04/05 13:50:40;;;;;;;5.90;2.83;;;;;;;;;;7375347;19;20029;-78
2022/04/05 13:53:06;;;;;;;5.80;2.67;;;;;;;;;;7376001;19;20690;-79
2022/04/05 13:55:31;;;;;;;5.03;2.47;;;;;;;;;;7364121;19;20014;-80
2022/04/05 13:57:56;;;;;;;6.07;3.60;;;;;;;;;;7373078;19;20003;-78
2022/04/05 14:00:22;;;;;;;7.40;4.18;;;;;;;;;;7377110;19;20357;-81
2022/04/05 14:02:47;;;;;;;7.25;3.72;;;;;;;;;;7373414;19;20405;-79
2022/04/05 14:05:12;;;;;;;6.23;3.13;;;;;;;;;;7369472;19;20321;-78
2022/04/05 14:07:38;;;;;;;5.75;3.03;;;;;;;;;;7375333;19;20377;-79
2022/04/05 14:10:04;;;;;;;5.28;2.58;;;;;;;;;;7373728;19;20003;-80
2022/04/05 14:12:29;;;;;;;5.95;3.17;;;;;;;;;;7370217;19;20477;-79
2022/04/05 14:14:55;;;;;;;6.50;3.35;;;;;;;;;;7384323;19;20291;-78
2022/04/05 14:17:20;;;;;;;5.43;2.90;;;;;;;;;;7379720;19;20015;-80
2022/04/05 14:19:45;;;;;;;5.03;2.50;;;;;;;;;;7374664;19;20006;-78
2022/04/05 14:22:12;;;;;;;8.63;3.03;;;;;;;;;;7383102;19;20007;-80
2022/04/05 14:24:37;;;;;;;4.55;2.45;;;;;;;;;;7380469;19;20003;-77
2022/04/05 14:27:03;;;;;;;5.25;2.25;;;;;;;;;;7358540;19;20425;-79
2022/04/05 14:29:28;;;;;;;4.95;2.08;;;;;;;;;;7384199;19;19998;-77
2022/04/05 14:31:53;;;;;;;4.55;1.95;;;;;;;;;;7380923;19;20010;-77
2022/04/05 14:34:19;;;;;;;5.28;2.10;;;;;;;;;;7375176;19;20046;-78
2022/04/05 14:36:45;;;;;;;5.40;1.65;;;;;;;;;;7380295;19;20014;-78
2022/04/05 14:39:10;;;;;;;4.63;1.80;;;;;;;;;;7379062;19;20339;-78
2022/04/05 14:41:36;;;;;;;4.38;1.88;;;;;;;;;;7362197;19;20082;-77
2022/04/05 14:44:02;;;;;;;4.85;1.80;;;;;;;;;;7382997;19;20347;-78
2022/04/05 14:46:31;;;;;;;3.40;1.40;;;;;;;;;;7376708;19;20015;-78
2022/04/05 14:48:59;;;;;;;3.80;1.35;;;;;;;;;;7373801;19;20022;-77
2022/04/05 14:51:24;;;;;;;3.80;1.70;;;;;;;;;;7385017;19;20259;-78
2022/04/05 14:53:50;;;;;;;4.55;1.85;;;;;;;;;;7380161;19;20010;-79
2022/04/05 14:56:15;;;;;;;4.25;1.98;;;;;;;;;;7368515;19;20424;-78
2022/04/05 14:58:40;;;;;;;5.03;2.40;;;;;;;;;;7382095;19;20010;-78
2022/04/05 15:01:05;;;;;;;5.03;2.58;;;;;;;;;;7378572;19;20007;-78
2022/04/05 15:03:32;;;;;;;4.83;2.00;;;;;;;;;;7376262;19;20029;-79
2022/04/05 15:05:57;;;;;;;6.63;2.50;;;;;;;;;;7381407;19;20246;-80
2022/04/05 15:08:22;;;;;;;5.15;2.70;;;;;;;;;;7379713;19;20472;-79
2022/04/05 15:10:48;;;;;;;5.65;2.50;;;;;;;;;;7368666;19;20021;-79
2022/04/05 15:13:13;;;;;;;5.85;2.88;;;;;;;;;;7374489;19;20010;-79
2022/04/05 15:15:38;;;;;;;6.30;3.10;;;;;;;;;;7379299;19;20961;-78
2022/04/05 15:18:03;;;;;;;6.93;3.67;;;;;;;;;;7369815;19;20335;-80
2022/04/05 15:20:29;;;;;;;6.85;3.50;;;;;;;;;;7375220;19;20790;-77
2022/04/05 15:22:54;;;;;;;6.60;3.70;;;;;;;;;;7380429;19;20016;-77
2022/04/05 15:25:19;;;;;;;7.93;4.33;;;;;;;;;;7352789;19;20021;-79
2022/04/05 15:27:44;;;;;;;6.63;3.63;;;;;;;;;;7375523;19;20239;-78
2022/04/05 15:30:10;;;;;;;7.53;3.72;;;;;;;;;;7369063;19;20714;-79
2022/04/05 15:32:35;;;;;;;7.30;3.72;;;;;;;;;;7381331;19;20010;-78
2022/04/05 15:35:00;;;;;;;8.02;3.90;;;;;;;;;;7380450;19;20006;-77
2022/04/05 15:37:25;;;;;;;7.22;3.88;;;;;;;;;;7377984;19;20003;-77
2022/04/05 15:39:50;;;;;;;6.90;3.50;;;;;;;;;;7367208;19;20409;-79
2022/04/05 15:42:16;;;;;;;8.18;4.18;;;;;;;;;;7361010;19;20316;-78
2022/04/05 15:44:41;;;;;;;8.20;3.33;;;;;;;;;;7372741;19;19994;-77
2022/04/05 15:47:07;;;;;;;5.95;3.10;;;;;;;;;;7377779;19;20018;-78
2022/04/05 15:49:33;;;;;;;6.65;3.42;;;;;;;;;;7379038;19;20032;-79
2022/04/05 15:51:58;;;;;;;6.13;3.10;;;;;;;;;;7378946;19;20249;-78
2022/04/05 15:54:24;;;;;;;5.82;2.85;;;;;;;;;;7376959;19;20015;-79
2022/04/05 15:56:49;;;;;;;5.03;2.28;;;;;;;;;;7357149;19;20014;-77
2022/04/05 15:59:16;;;;;;;5.75;2.28;;;;;;;;;;7379996;19;20469;-78
2022/04/05 16:01:41;;;;;;;5.10;2.50;;;;;;;;;;7376786;19;20025;-77
2022/04/05 16:04:07;;;;;;;4.47;1.87;;;;;;;;;;7380927;19;20002;-79
2022/04/05 16:06:32;;;;;;;4.78;2.05;;;;;;;;;;7367769;19;20599;-77
2022/04/05 16:08:57;;;;;;;4.40;1.65;;;;;;;;;;7380296;19;20003;-77
2022/04/05 16:11:23;;;;;;;5.95;2.30;;;;;;;;;;7362625;19;20433;-81
2022/04/05 16:13:49;;;;;;;4.57;2.10;;;;;;;;;;7376816;19;20005;-76
2022/04/05 16:16:14;;;;;;;5.28;2.20;;;;;;;;;;7374613;19;20838;-79
2022/04/05 16:18:39;;;;;;;5.20;2.27;;;;;;;;;;7377385;19;20336;-80
2022/04/05 16:21:04;;;;;;;5.63;2.40;;;;;;;;;;7361584;19;20243;-80
2022/04/05 16:23:29;;;;;;;4.75;2.03;;;;;;;;;;7382290;19;20399;-80
2022/04/05 16:25:55;;;;;;;6.20;2.60;;;;;;;;;;7361142;19;20027;-79
2022/04/05 16:28:20;;;;;;;4.90;1.88;;;;;;;;;;7369741;19;20095;-79
2022/04/05 16:30:45;;;;;;;5.87;2.87;;;;;;;;;;7377350;19;20017;-80
2022/04/05 16:33:10;;;;;;;5.57;2.47;;;;;;;;;;7372360;19;20798;-79
2022/04/05 16:35:35;;;;;;;4.85;2.00;;;;;;;;;;7367160;19;20007;-79
2022/04/05 16:38:01;;;;;;;5.30;2.40;;;;;;;;;;7373006;19;19998;-79
2022/04/05 16:40:26;;;;;;;6.72;3.28;;;;;;;;;;7366351;19;20503;-81
2022/04/05 16:42:53;;;;;;;5.77;2.50;;;;;;;;;;7366936;19;20389;-79
2022/04/05 16:45:19;;;;;;;4.85;2.35;;;;;;;;;;7377450;19;20255;-77
2022/04/05 16:47:44;;;;;;;4.88;2.05;;;;;;;;;;7374356;19;20006;-79
2022/04/05 16:50:09;;;;;;;5.35;2.50;;;;;;;;;;7370217;19;20035;-79
2022/04/05 16:52:34;;;;;;;4.93;2.00;;;;;;;;;;7380056;19;20410;-78
2022/04/05 16:55:00;;;;;;;6.10;2.40;;;;;;;;;;7376077;19;20245;-80
2022/04/05 16:57:26;;;;;;;5.70;2.65;;;;;;;;;;7370360;19;20303;-78
2022/04/05 16:59:51;;;;;;;5.85;2.53;;;;;;;;;;7379053;19;20030;-78
2022/04/05 17:02:17;;;;;;;5.97;2.63;;;;;;;;;;7375342;19;20003;-77
2022/04/05 17:04:42;;;;;;;6.05;2.92;;;;;;;;;;7379697;19;20007;-78
2022/04/05 17:07:08;;;;;;;5.25;2.60;;;;;;;;;;7359822;19;20023;-78
2022/04/05 17:09:33;;;;;;;8.40;3.33;;;;;;;;;;7377034;19;19999;-78
2022/04/05 17:11:58;;;;;;;7.55;3.55;;;;;;;;;;7373324;19;20057;-79
2022/04/05 17:14:24;;;;;;;8.55;4.53;;;;;;;;;;7378189;19;20439;-79
2022/04/05 17:16:49;;;;;;;8.60;4.68;;;;;;;;;;7366872;19;20014;-78
2022/04/05 17:19:14;;;;;;;9.70;5.40;;;;;;;;;;7377539;19;20002;-78
2022/04/05 17:21:40;;;;;;;10.27;5.63;;;;;;;;;;7373341;19;20044;-77
2022/04/05 17:24:05;;;;;;;10.93;5.97;;;;;;;;;;7370410;19;20011;-79
2022/04/05 17:26:30;;;;;;;12.07;6.75;;;;;;;;;;7346819;19;20310;-78
2022/04/05 17:28:57;;;;;;;12.37;6.87;;;;;;;;;;7377533;19;19999;-79
2022/04/05 17:31:23;;;;;;;14.57;7.68;;;;;;;;;;7375881;19;20311;-78
2022/04/05 17:33:49;;;;;;;14.45;7.75;;;;;;;;;;7379776;19;20083;-77
2022/04/05 17:36:15;;;;;;;15.87;8.10;;;;;;;;;;7368429;19;20010;-78
2022/04/05 17:38:41;;;;;;;17.50;9.10;;;;;;;;;;7358944;19;20255;-79
2022/04/05 17:41:06;;;;;;;17.67;9.40;;;;;;;;;;7341120;19;20584;-78
2022/04/05 17:43:33;;;;;;;18.70;9.98;;;;;;;;;;7306655;19;20097;-77
2022/04/05 17:45:59;;;;;;;19.23;10.02;;;;;;;;;;7377715;19;20495;-77
2022/04/05 17:48:24;;;;;;;17.73;10.35;;;;;;;;;;7345141;19;20309;-80
2022/04/05 17:50:49;;;;;;;18.77;9.13;;;;;;;;;;7322023;19;20014;-80
2022/04/05 17:53:15;;;;;;;19.13;9.70;;;;;;;;;;7337538;19;20002;-78
2022/04/05 17:55:40;;;;;;;20.13;10.13;;;;;;;;;;7354535;19;20086;-80
2022/04/05 17:58:05;;;;;;;21.20;10.25;;;;;;;;;;7370636;19;20497;-80
2022/04/05 18:00:31;;;;;;;17.73;9.63;;;;;;;;;;7379882;19;19999;-78
2022/04/05 18:02:56;;;;;;;18.35;9.32;;;;;;;;;;7376500;19;20688;-79
2022/04/05 18:05:24;;;;;;;17.05;8.95;;;;;;;;;;7375133;19;20644;-78
2022/04/05 18:07:49;;;;;;;21.25;9.93;;;;;;;;;;7379928;19;20066;-79
2022/04/05 18:10:15;;;;;;;21.40;9.50;;;;;;;;;;7366771;19;20380;-78
2022/04/05 18:12:43;;;;;;;18.30;9.85;;;;;;;;;;7360404;19;20540;-80
2022/04/05 18:15:08;;;;;;;18.15;9.25;;;;;;;;;;7384272;19;20015;-79
2022/04/05 18:17:33;;;;;;;18.88;9.32;;;;;;;;;;7361436;19;20018;-78
2022/04/05 18:19:59;;;;;;;16.63;8.05;;;;;;;;;;7369495;19;20002;-79
2022/04/05 18:22:24;;;;;;;20.20;9.35;;;;;;;;;;7373889;19;20022;-79
2022/04/05 18:24:49;;;;;;;16.05;8.98;;;;;;;;;;7368184;19;20084;-77
2022/04/05 18:27:15;;;;;;;17.42;9.52;;;;;;;;;;7370809;19;20003;-77
2022/04/05 18:29:40;;;;;;;16.45;9.00;;;;;;;;;;7379630;19;20406;-80
2022/04/05 18:32:06;;;;;;;17.88;9.48;;;;;;;;;;7373121;19;20005;-79
2022/04/05 18:34:31;;;;;;;15.32;8.63;;;;;;;;;;7384209;19;20002;-80
2022/04/05 18:36:56;;;;;;;17.88;10.20;;;;;;;;;;7379908;19;20026;-79
2022/04/05 18:39:22;;;;;;;18.33;9.38;;;;;;;;;;7382740;19;20387;-79
2022/04/05 22:02:38;;;;;;;22.40;10.50;;;;;;;;;;7304000;19;20018;-80
2022/04/05 22:05:05;;;;;;;27.30;11.75;;;;;;;;;;7334160;19;20344;-78
2022/04/05 22:07:31;;;;;;;24.92;11.32;;;;;;;;;;7375129;19;20358;-80
2022/04/05 22:09:56;;;;;;;28.95;11.90;;;;;;;;;;7342752;19;20007;-77
2022/04/05 22:12:21;;;;;;;28.67;12.90;;;;;;;;;;7358488;19;19999;-76
2022/04/05 22:14:46;;;;;;;28.02;11.68;;;;;;;;;;7375071;19;20277;-77
2022/04/05 22:17:11;;;;;;;25.70;12.05;;;;;;;;;;7353411;19;20021;-83
2022/04/05 22:19:37;;;;;;;29.70;12.80;;;;;;;;;;7365129;19;20041;-80
2022/04/05 22:22:02;;;;;;;30.10;13.30;;;;;;;;;;7375818;19;20031;-77
2022/04/05 22:24:27;;;;;;;22.13;11.73;;;;;;;;;;7372143;19;20465;-79
2022/04/05 22:26:52;;;;;;;28.50;12.07;;;;;;;;;;7365103;19;20070;-77
2022/04/05 22:29:17;;;;;;;28.40;13.87;;;;;;;;;;7373827;19;20215;-77
2022/04/05 22:31:44;;;;;;;22.97;11.50;;;;;;;;;;7369304;19;20256;-82
2022/04/05 22:34:09;;;;;;;26.65;12.60;;;;;;;;;;7374401;19;20553;-77
2022/04/05 22:36:35;;;;;;;29.52;12.05;;;;;;;;;;7384799;19;20010;-78
2022/04/05 22:39:00;;;;;;;26.08;12.93;;;;;;;;;;7369597;19;20002;-80
2022/04/05 22:41:25;;;;;;;25.08;11.80;;;;;;;;;;7366700;19;20015;-78
2022/04/05 22:43:51;;;;;;;32.75;12.77;;;;;;;;;;7381347;19;20363;-77
2022/04/05 22:46:16;;;;;;;27.37;13.37;;;;;;;;;;7380394;19;20085;-76
2022/04/05 22:48:42;;;;;;;26.38;12.13;;;;;;;;;;7377711;19;20258;-81
2022/04/05 22:51:07;;;;;;;25.20;12.50;;;;;;;;;;7369901;19;20010;-75
2022/04/05 22:53:33;;;;;;;25.88;12.32;;;;;;;;;;7369903;19;20006;-76
2022/04/05 22:55:58;;;;;;;25.17;12.68;;;;;;;;;;7356986;19;20018;-82
2022/04/05 22:58:23;;;;;;;27.30;11.98;;;;;;;;;;7372029;19;20009;-82
2022/04/05 23:00:48;;;;;;;25.55;12.35;;;;;;;;;;7373411;19;20015;-80
2022/04/05 23:03:13;;;;;;;25.55;11.95;;;;;;;;;;7370692;19;20009;-78
2022/04/05 23:05:39;;;;;;;30.58;12.35;;;;;;;;;;7377052;19;20010;-80
2022/04/05 23:08:04;;;;;;;29.58;12.13;;;;;;;;;;7358295;19;19995;-75
2022/04/05 23:10:29;;;;;;;23.17;11.27;;;;;;;;;;7372246;19;20569;-80
2022/04/05 23:12:55;;;;;;;30.10;11.65;;;;;;;;;;7366612;19;20647;-78
2022/04/05 23:15:21;;;;;;;24.23;11.18;;;;;;;;;;7382658;19;20381;-77
2022/04/05 23:17:46;;;;;;;27.55;10.38;;;;;;;;;;7368281;19;20007;-81
2022/04/05 23:20:12;;;;;;;26.40;9.65;;;;;;;;;;7381006;19;20022;-78
2022/04/05 23:22:39;;;;;;;21.90;10.27;;;;;;;;;;7376871;19;20011;-77
2022/04/05 23:25:04;;;;;;;21.15;8.60;;;;;;;;;;7366706;19;20033;-83
2022/04/05 23:27:30;;;;;;;21.25;9.60;;;;;;;;;;7361763;19;20078;-81
2022/04/05 23:29:55;;;;;;;25.85;9.85;;;;;;;;;;7378612;19;20078;-78
2022/04/05 23:32:21;;;;;;;26.30;9.55;;;;;;;;;;7377214;19;20018;-79
2022/04/05 23:34:47;;;;;;;19.98;8.43;;;;;;;;;;7378221;19;20017;-80
2022/04/05 23:37:13;;;;;;;23.15;8.95;;;;;;;;;;7372024;19;19994;-77
2022/04/05 23:39:39;;;;;;;19.42;8.10;;;;;;;;;;7362538;19;20687;-80
2022/04/05 23:42:05;;;;;;;21.30;7.00;;;;;;;;;;7358712;19;20740;-75
2022/04/05 23:44:31;;;;;;;24.80;8.23;;;;;;;;;;7377502;19;20376;-79
2022/04/05 23:46:56;;;;;;;19.35;7.20;;;;;;;;;;7376830;19;19995;-79
2022/04/05 23:49:21;;;;;;;16.58;6.22;;;;;;;;;;7371947;19;20023;-77
2022/04/05 23:51:46;;;;;;;21.10;7.88;;;;;;;;;;7380293;19;20029;-77
2022/04/05 23:54:13;;;;;;;23.20;7.10;;;;;;;;;;7378528;19;20629;-81
2022/04/05 23:56:39;;;;;;;18.08;6.38;;;;;;;;;;7362985;19;20022;-77
2022/04/05 23:59:04;;;;;;;17.38;6.90;;;;;;;;;;7379693;19;20470;-76
